createdAt,value
2023-03-21T00:01:02.126Z,97148.25
2023-03-21T00:03:34.978Z,97148.47
2023-03-21T00:06:09.861Z,97137.66
2023-03-21T00:08:41.491Z,97140.84
2023-03-21T00:11:13.583Z,97135.69
2023-03-21T00:13:45.190Z,97138.16
2023-03-21T00:16:26.548Z,97136.78
2023-03-21T00:18:59.957Z,97143.28
2023-03-21T00:22:05.546Z,97138.00
2023-03-21T00:24:24.061Z,97138.25
2023-03-21T00:27:06.083Z,97127.88
2023-03-21T00:29:48.090Z,97128.81
2023-03-21T00:32:22.983Z,97139.44
2023-03-21T00:35:03.925Z,97131.25
2023-03-21T00:37:45.918Z,97129.69
2023-03-21T00:40:26.573Z,97121.81
2023-03-21T00:43:02.787Z,97124.34
2023-03-21T00:45:34.707Z,97125.38
2023-03-21T00:48:06.595Z,97120.03
2023-03-21T00:50:40.095Z,97118.06
2023-03-21T00:53:11.718Z,97122.88
2023-03-21T00:55:43.470Z,97120.19
2023-03-21T00:58:15.826Z,97126.44
2023-03-21T01:00:48.242Z,97128.59
2023-03-21T01:03:24.938Z,97128.13
2023-03-21T01:05:57.168Z,97128.38
2023-03-21T01:09:06.304Z,97127.53
2023-03-21T01:11:56.028Z,97124.41
2023-03-21T01:14:27.616Z,97123.38
2023-03-21T01:16:59.332Z,97122.31
2023-03-21T01:19:48.362Z,97124.16
2023-03-21T01:22:22.217Z,97121.19
2023-03-21T01:24:58.539Z,97119.34
2023-03-21T01:27:32.498Z,97125.16
2023-03-21T01:30:11.262Z,97116.72
2023-03-21T01:32:49.398Z,97115.38
2023-03-21T01:35:21.196Z,97116.72
2023-03-21T01:37:53.208Z,97113.56
2023-03-21T01:40:27.176Z,97116.72
2023-03-21T01:43:31.822Z,97105.81
2023-03-21T01:46:20.680Z,97112.78
2023-03-21T01:49:21.844Z,97109.53
2023-03-21T01:52:11.525Z,97110.66
2023-03-21T01:54:47.792Z,97111.41
2023-03-21T01:57:35.506Z,97109.56
2023-03-21T02:00:13.550Z,97113.78
2023-03-21T02:02:52.554Z,97106.59
2023-03-21T02:06:01.112Z,97102.84
2023-03-21T02:08:39.856Z,97098.59
2023-03-21T02:11:18.245Z,97097.81
2023-03-21T02:13:53.645Z,97099.47
2023-03-21T02:16:50.939Z,97100.53
2023-03-21T02:19:57.025Z,97104.50
2023-03-21T02:22:56.721Z,97100.56
2023-03-21T02:26:06.682Z,97100.03
2023-03-21T02:29:17.885Z,97101.88
2023-03-21T02:31:57.120Z,97096.53
2023-03-21T02:34:58.361Z,97098.44
2023-03-21T02:37:44.629Z,97098.97
2023-03-21T02:40:32.283Z,97095.50
2023-03-21T02:43:23.350Z,97096.84
2023-03-21T02:46:33.428Z,97100.56
2023-03-21T02:49:23.041Z,97094.69
2023-03-21T02:52:08.571Z,97092.84
2023-03-21T02:54:48.584Z,97094.44
2023-03-21T02:57:29.204Z,97092.03
2023-03-21T03:00:17.833Z,97096.56
2023-03-21T03:03:02.669Z,97099.50
2023-03-21T03:05:47.892Z,97092.31
2023-03-21T03:08:50.128Z,97087.25
2023-03-21T03:11:38.001Z,97094.97
2023-03-21T03:14:56.536Z,97098.44
2023-03-21T03:17:52.128Z,97096.25
2023-03-21T03:20:52.852Z,97093.63
2023-03-21T03:23:46.886Z,97088.00
2023-03-21T03:26:25.365Z,97089.09
2023-03-21T03:29:07.342Z,97094.97
2023-03-21T03:31:56.626Z,97085.66
2023-03-21T03:34:41.680Z,97087.53
2023-03-21T03:37:19.082Z,97091.44
2023-03-21T03:40:08.637Z,97093.09
2023-03-21T03:42:52.499Z,97093.59
2023-03-21T03:45:53.824Z,97089.13
2023-03-21T03:48:33.601Z,97095.50
2023-03-21T03:51:16.678Z,97091.75
2023-03-21T03:54:16.500Z,97091.53
2023-03-21T03:56:50.522Z,97086.16
2023-03-21T03:59:22.209Z,97089.66
2023-03-21T04:02:14.696Z,97090.69
2023-03-21T04:04:47.025Z,97094.94
2023-03-21T04:07:21.433Z,97088.03
2023-03-21T04:09:54.686Z,97086.44
2023-03-21T04:12:26.451Z,97092.31
2023-03-21T04:15:17.704Z,97094.19
2023-03-21T04:17:54.226Z,97089.91
2023-03-21T04:20:36.183Z,97087.78
2023-03-21T04:23:09.303Z,97095.22
2023-03-21T04:25:53.932Z,97094.69
2023-03-21T04:28:29.761Z,97094.16
2023-03-21T04:31:25.010Z,97084.06
2023-03-21T04:34:06.070Z,97094.69
2023-03-21T04:36:38.702Z,97089.88
2023-03-21T04:39:12.635Z,97089.34
2023-03-21T04:41:46.696Z,97084.34
2023-03-21T04:44:18.858Z,97093.91
2023-03-21T04:46:51.335Z,97100.53
2023-03-21T04:49:23.792Z,97090.19
2023-03-21T04:51:55.446Z,97095.50
2023-03-21T04:54:27.171Z,97100.53
2023-03-21T04:56:59.782Z,97102.94
2023-03-21T04:59:32.607Z,97093.13
2023-03-21T05:02:04.290Z,97092.31
2023-03-21T05:04:36.317Z,97101.38
2023-03-21T05:07:08.131Z,97104.84
2023-03-21T05:09:40.200Z,97098.66
2023-03-21T05:12:12.000Z,97093.63
2023-03-21T05:14:43.687Z,97101.81
2023-03-21T05:17:15.592Z,97100.56
2023-03-21T05:19:47.866Z,97098.09
2023-03-21T05:22:20.270Z,97096.81
2023-03-21T05:24:53.465Z,97090.47
2023-03-21T05:27:57.559Z,97089.06
2023-03-21T05:30:33.253Z,97090.91
2023-03-21T05:33:07.347Z,97090.16
2023-03-21T05:35:40.468Z,97090.47
2023-03-21T05:38:15.286Z,97081.94
2023-03-21T05:40:55.180Z,97092.59
2023-03-21T05:43:27.093Z,97091.50
2023-03-21T05:45:59.454Z,97080.84
2023-03-21T05:48:35.092Z,97083.53
2023-03-21T05:51:18.297Z,97091.75
2023-03-21T05:53:51.578Z,97090.66
2023-03-21T05:56:23.357Z,97093.06
2023-03-21T05:58:59.370Z,97092.22
2023-03-21T06:01:32.233Z,97096.50
2023-03-21T06:04:13.219Z,97097.19
2023-03-21T06:06:45.223Z,97097.44
2023-03-21T06:09:16.917Z,97103.63
2023-03-21T06:11:57.881Z,97102.81
2023-03-21T06:14:36.686Z,97102.53
2023-03-21T06:17:20.260Z,97117.53
2023-03-21T06:19:57.113Z,97114.72
2023-03-21T06:22:34.748Z,97113.75
2023-03-21T06:25:12.123Z,97112.47
2023-03-21T06:27:50.624Z,97113.22
2023-03-21T06:30:23.184Z,97110.81
2023-03-21T06:33:19.334Z,97104.34
2023-03-21T06:35:55.119Z,97103.09
2023-03-21T06:38:27.474Z,97109.72
2023-03-21T06:40:59.192Z,97110.16
2023-03-21T06:43:35.495Z,97106.69
2023-03-21T06:46:08.319Z,97117.66
2023-03-21T06:48:43.390Z,97115.22
2023-03-21T06:51:15.914Z,97119.09
2023-03-21T06:54:00.745Z,97111.72
2023-03-21T06:56:41.177Z,97121.34
2023-03-21T06:59:16.262Z,97119.38
2023-03-21T07:01:58.008Z,97116.94
2023-03-21T07:04:30.155Z,97120.59
2023-03-21T07:07:02.952Z,97119.78
2023-03-21T07:09:34.654Z,97121.63
2023-03-21T07:12:09.733Z,97115.38
2023-03-21T07:14:53.476Z,97124.84
2023-03-21T07:17:25.160Z,97120.94
2023-03-21T07:20:00.140Z,97120.44
2023-03-21T07:22:31.910Z,97110.94
2023-03-21T07:25:05.589Z,97113.13
2023-03-21T07:27:43.210Z,97118.25
2023-03-21T07:30:16.281Z,97124.19
2023-03-21T07:32:48.657Z,97120.94
2023-03-21T07:35:20.929Z,97127.75
2023-03-21T07:37:52.749Z,97127.34
2023-03-21T07:40:24.739Z,97127.81
2023-03-21T07:42:56.572Z,97132.09
2023-03-21T07:45:38.888Z,97133.53
2023-03-21T07:48:13.810Z,97126.28
2023-03-21T07:50:45.765Z,97127.22
2023-03-21T07:53:17.788Z,97128.31
2023-03-21T07:55:53.613Z,97142.53
2023-03-21T07:58:26.048Z,97142.78
2023-03-21T08:00:58.561Z,97138.31
2023-03-21T08:03:30.556Z,97142.63
2023-03-21T08:06:02.345Z,97137.63
2023-03-21T08:08:34.113Z,97136.72
2023-03-21T08:11:06.684Z,97138.44
2023-03-21T08:13:38.604Z,97134.25
2023-03-21T08:16:10.324Z,97134.56
2023-03-21T08:18:42.105Z,97142.22
2023-03-21T08:21:14.089Z,97142.53
2023-03-21T08:23:45.845Z,97145.81
2023-03-21T08:26:17.602Z,97143.44
2023-03-21T08:28:49.438Z,97144.25
2023-03-21T08:31:21.185Z,97143.03
2023-03-21T08:33:53.001Z,97143.09
2023-03-21T08:36:24.858Z,97140.44
2023-03-21T08:38:56.673Z,97135.13
2023-03-21T08:41:28.620Z,97128.72
2023-03-21T08:44:00.828Z,97122.03
2023-03-21T08:46:33.382Z,97127.91
2023-03-21T08:49:05.078Z,97132.94
2023-03-21T08:51:36.660Z,97137.78
2023-03-21T08:54:08.295Z,97129.06
2023-03-21T08:56:39.923Z,97119.88
2023-03-21T08:59:11.539Z,97120.66
2023-03-21T09:01:43.182Z,97121.75
2023-03-21T09:04:14.887Z,97128.72
2023-03-21T09:06:46.565Z,97127.44
2023-03-21T09:09:18.308Z,97125.22
2023-03-21T09:11:52.127Z,97118.84
2023-03-21T09:14:28.736Z,97115.09
2023-03-21T09:17:01.831Z,97122.56
2023-03-21T09:19:33.538Z,97121.66
2023-03-21T09:22:05.107Z,97124.66
2023-03-21T09:24:36.710Z,97117.81
2023-03-21T09:27:08.314Z,97119.09
2023-03-21T09:29:40.207Z,97111.97
2023-03-21T09:32:11.837Z,97112.97
2023-03-21T09:34:43.551Z,97118.81
2023-03-21T09:37:15.124Z,97123.91
2023-03-21T09:39:46.701Z,97124.38
2023-03-21T09:42:42.395Z,97123.53
2023-03-21T09:45:30.528Z,97122.69
2023-03-21T09:48:02.531Z,97123.78
2023-03-21T09:50:39.466Z,97125.88
2023-03-21T09:53:25.453Z,97121.72
2023-03-21T09:55:57.221Z,97120.09
2023-03-21T09:58:39.907Z,97120.13
2023-03-21T10:01:18.775Z,97108.84
2023-03-21T10:03:50.391Z,97102.34
2023-03-21T10:06:24.618Z,97093.31
2023-03-21T10:09:05.158Z,97089.06
2023-03-21T10:11:43.510Z,97084.00
2023-03-21T10:14:29.448Z,97081.38
2023-03-21T10:17:26.895Z,97086.16
2023-03-21T10:20:18.934Z,97078.88
2023-03-21T10:22:55.462Z,97072.66
2023-03-21T10:25:37.793Z,97070.69
2023-03-21T10:28:18.478Z,97074.66
2023-03-21T10:30:56.669Z,97067.00
2023-03-21T10:33:37.953Z,97061.22
2023-03-21T10:36:20.352Z,97057.56
2023-03-21T10:39:06.531Z,97058.50
2023-03-21T10:41:38.668Z,97056.44
2023-03-21T10:44:12.424Z,97055.50
2023-03-21T10:47:06.799Z,97063.81
2023-03-21T10:50:05.146Z,97058.16
2023-03-21T10:52:33.839Z,97062.47
2023-03-21T10:55:29.077Z,97057.66
2023-03-21T10:58:08.166Z,97057.66
2023-03-21T11:00:43.881Z,97048.03
2023-03-21T11:03:26.906Z,97049.00
2023-03-21T11:06:05.220Z,97051.53
2023-03-21T11:08:47.170Z,97052.97
2023-03-21T11:11:28.377Z,97048.13
2023-03-21T11:14:07.786Z,97043.56
2023-03-21T11:16:43.849Z,97034.66
2023-03-21T11:19:25.927Z,97032.22
2023-03-21T11:21:59.860Z,97029.06
2023-03-21T11:24:33.884Z,97035.84
2023-03-21T11:27:08.554Z,97031.56
2023-03-21T11:29:47.907Z,97030.53
2023-03-21T11:32:34.245Z,97029.91
2023-03-21T11:35:19.729Z,97033.03
2023-03-21T11:37:55.384Z,97030.44
2023-03-21T11:40:36.148Z,97023.63
2023-03-21T11:43:16.664Z,97019.56
2023-03-21T11:45:57.578Z,97013.56
2023-03-21T11:48:29.491Z,96997.56
2023-03-21T11:51:12.490Z,96993.09
2023-03-21T11:54:11.747Z,96990.00
2023-03-21T11:56:51.470Z,96985.84
2023-03-21T11:59:37.970Z,96977.38
2023-03-21T12:02:12.365Z,96976.00
2023-03-21T12:04:52.982Z,96977.53
2023-03-21T12:08:03.618Z,96979.97
2023-03-21T12:10:53.235Z,96973.81
2023-03-21T12:13:30.737Z,96966.69
2023-03-21T12:16:10.861Z,96958.91
2023-03-21T12:18:54.716Z,96949.41
2023-03-21T12:21:35.195Z,96950.88
2023-03-21T12:24:29.685Z,96938.41
2023-03-21T12:27:13.176Z,96936.78
2023-03-21T12:30:35.392Z,96931.03
2023-03-21T12:33:34.006Z,96928.88
2023-03-21T12:36:14.028Z,96926.97
2023-03-21T12:39:11.886Z,96923.19
2023-03-21T12:42:12.853Z,96925.09
2023-03-21T12:44:51.871Z,96923.19
2023-03-21T12:47:28.711Z,96915.16
2023-03-21T12:50:15.302Z,96911.13
2023-03-21T12:53:01.419Z,96907.97
2023-03-21T12:55:35.514Z,96912.41
2023-03-21T12:58:16.279Z,96914.31
2023-03-21T13:00:54.421Z,96908.84
2023-03-21T13:03:59.321Z,96909.06
2023-03-21T13:06:31.559Z,96902.97
2023-03-21T13:09:11.318Z,96900.25
2023-03-21T13:11:45.058Z,96907.25
2023-03-21T13:14:30.421Z,96900.41
2023-03-21T13:17:11.637Z,96907.50
2023-03-21T13:20:31.177Z,96904.09
2023-03-21T13:23:03.026Z,96888.41
2023-03-21T13:25:52.584Z,96888.03
2023-03-21T13:28:30.513Z,96887.59
2023-03-21T13:31:26.283Z,96883.81
2023-03-21T13:33:59.961Z,96870.03
2023-03-21T13:36:35.360Z,96871.88
2023-03-21T13:39:15.437Z,96863.19
2023-03-21T13:41:48.655Z,96865.31
2023-03-21T13:44:20.239Z,96862.91
2023-03-21T13:47:00.136Z,96862.25
2023-03-21T13:49:35.829Z,96852.00
2023-03-21T13:52:10.241Z,96853.75
2023-03-21T13:54:44.854Z,96853.63
2023-03-21T13:57:28.718Z,96844.47
2023-03-21T14:00:19.214Z,96856.06
2023-03-21T14:03:13.485Z,96854.59
2023-03-21T14:05:50.629Z,96850.22
2023-03-21T14:08:36.760Z,96850.78
2023-03-21T14:11:16.118Z,96842.19
2023-03-21T14:13:51.565Z,96837.72
2023-03-21T14:16:27.423Z,96841.53
2023-03-21T14:19:05.456Z,96839.66
2023-03-21T14:21:37.242Z,96832.69
2023-03-21T14:24:13.987Z,96831.22
2023-03-21T14:26:50.098Z,96824.94
2023-03-21T14:29:31.888Z,96832.84
2023-03-21T14:32:04.768Z,96833.94
2023-03-21T14:34:37.286Z,96831.03
2023-03-21T14:37:11.688Z,96829.03
2023-03-21T14:39:43.289Z,96828.47
2023-03-21T14:42:15.410Z,96815.38
2023-03-21T14:44:55.272Z,96815.09
2023-03-21T14:47:29.701Z,96814.34
2023-03-21T14:50:01.492Z,96814.81
2023-03-21T14:52:34.806Z,96815.22
2023-03-21T14:55:15.804Z,96813.19
2023-03-21T14:57:48.958Z,96812.25
2023-03-21T15:00:32.622Z,96816.19
2023-03-21T15:03:04.441Z,96808.25
2023-03-21T15:05:38.453Z,96807.38
2023-03-21T15:08:20.440Z,96808.59
2023-03-21T15:11:07.109Z,96808.59
2023-03-21T15:13:46.730Z,96806.16
2023-03-21T15:16:19.692Z,96806.41
2023-03-21T15:18:52.065Z,96809.78
2023-03-21T15:21:29.031Z,96804.09
2023-03-21T15:24:09.571Z,96799.00
2023-03-21T15:26:45.557Z,96804.88
2023-03-21T15:29:19.004Z,96805.19
2023-03-21T15:31:50.740Z,96801.38
2023-03-21T15:34:29.255Z,96806.91
2023-03-21T15:37:05.637Z,96801.13
2023-03-21T15:39:37.537Z,96808.94
2023-03-21T15:42:26.315Z,96805.00
2023-03-21T15:45:02.305Z,96813.25
2023-03-21T15:48:07.052Z,96810.22
2023-03-21T15:50:43.049Z,96817.19
2023-03-21T15:53:19.052Z,96810.84
2023-03-21T15:55:56.206Z,96806.47
2023-03-21T15:58:43.822Z,96812.47
2023-03-21T16:01:21.706Z,96818.03
2023-03-21T16:04:02.592Z,96812.47
2023-03-21T16:06:37.849Z,96812.25
2023-03-21T16:09:16.345Z,96811.66
2023-03-21T16:11:56.625Z,96811.81
2023-03-21T16:14:28.372Z,96811.03
2023-03-21T16:17:00.107Z,96808.34
2023-03-21T16:19:31.763Z,96808.69
2023-03-21T16:22:09.819Z,96816.59
2023-03-21T16:24:41.590Z,96808.31
2023-03-21T16:27:13.506Z,96802.31
2023-03-21T16:29:45.565Z,96812.94
2023-03-21T16:32:18.484Z,96804.81
2023-03-21T16:34:50.220Z,96803.81
2023-03-21T16:37:22.237Z,96818.25
2023-03-21T16:39:54.058Z,96814.56
2023-03-21T16:42:25.776Z,96816.38
2023-03-21T16:44:57.422Z,96820.59
2023-03-21T16:47:29.287Z,96812.66
2023-03-21T16:50:01.058Z,96814.69
2023-03-21T16:52:32.801Z,96814.34
2023-03-21T16:55:04.987Z,96813.00
2023-03-21T16:57:37.747Z,96814.31
2023-03-21T17:00:14.275Z,96813.56
2023-03-21T17:02:47.670Z,96819.25
2023-03-21T17:05:23.785Z,96823.75
2023-03-21T17:07:56.642Z,96830.97
2023-03-21T17:10:31.350Z,96824.38
2023-03-21T17:13:03.202Z,96828.38
2023-03-21T17:15:34.814Z,96832.06
2023-03-21T17:18:07.653Z,96831.56
2023-03-21T17:20:39.669Z,96833.72
2023-03-21T17:23:11.670Z,96835.06
2023-03-21T17:25:43.393Z,96838.97
2023-03-21T17:28:15.065Z,96835.81
2023-03-21T17:30:46.691Z,96839.06
2023-03-21T17:33:18.289Z,96839.06
2023-03-21T17:35:49.854Z,96826.66
2023-03-21T17:38:21.824Z,96836.25
2023-03-21T17:40:53.457Z,96844.56
2023-03-21T17:43:25.054Z,96847.25
2023-03-21T17:45:56.734Z,96846.13
2023-03-21T17:48:28.334Z,96839.03
2023-03-21T17:50:59.999Z,96844.28
2023-03-21T17:53:31.649Z,96848.69
2023-03-21T17:56:03.274Z,96845.38
2023-03-21T17:58:34.893Z,96843.00
2023-03-21T18:01:06.749Z,96846.97
2023-03-21T18:03:38.888Z,96847.38
2023-03-21T18:06:19.502Z,96851.47
2023-03-21T18:08:53.167Z,96852.41
2023-03-21T18:11:25.140Z,96851.84
2023-03-21T18:14:06.773Z,96850.47
2023-03-21T18:16:46.478Z,96844.81
2023-03-21T18:19:18.069Z,96846.41
2023-03-21T18:21:49.654Z,96845.44
2023-03-21T18:24:21.245Z,96849.22
2023-03-21T18:26:52.826Z,96851.16
2023-03-21T18:32:16.096Z,96843.84
2023-03-21T18:34:47.939Z,96847.44
2023-03-21T18:37:20.879Z,96852.22
2023-03-21T18:39:53.801Z,96854.84
2023-03-21T18:42:30.713Z,96860.34
2023-03-21T18:45:02.974Z,96863.66
2023-03-21T18:47:34.736Z,96861.16
2023-03-21T18:50:14.578Z,96866.53
2023-03-21T18:52:46.737Z,96868.72
2023-03-21T18:55:19.010Z,96872.38
2023-03-21T18:57:50.809Z,96869.81
2023-03-21T19:00:22.755Z,96872.06
2023-03-21T19:03:09.968Z,96866.94
2023-03-21T19:05:46.375Z,96864.78
2023-03-21T19:08:18.036Z,96875.28
2023-03-21T19:10:49.873Z,96879.38
2023-03-21T19:13:21.967Z,96877.66
2023-03-21T19:15:54.110Z,96883.22
2023-03-21T19:18:49.488Z,96882.03
2023-03-21T19:21:17.686Z,96885.47
2023-03-21T19:24:22.956Z,96890.22
2023-03-21T19:26:41.335Z,96883.06
2023-03-21T19:29:13.805Z,96886.44
2023-03-21T19:31:45.510Z,96891.09
2023-03-21T19:34:17.445Z,96886.22
2023-03-21T19:36:52.076Z,96879.63
2023-03-21T19:39:24.710Z,96880.16
2023-03-21T19:42:14.713Z,96882.97
2023-03-21T19:44:47.236Z,96881.06
2023-03-21T19:47:20.670Z,96874.75
2023-03-21T19:50:40.815Z,96875.16
2023-03-21T19:52:44.915Z,96889.19
2023-03-21T19:55:16.697Z,96873.44
2023-03-21T19:57:48.787Z,96874.22
2023-03-21T20:00:21.498Z,96877.03
2023-03-21T20:02:53.460Z,96875.78
2023-03-21T20:05:25.754Z,96879.09
2023-03-21T20:07:57.511Z,96878.25
2023-03-21T20:10:29.403Z,96879.97
2023-03-21T20:13:01.192Z,96877.41
2023-03-21T20:15:33.294Z,96883.47
2023-03-21T20:18:05.364Z,96880.34
2023-03-21T20:20:37.188Z,96877.47
2023-03-21T20:23:11.223Z,96873.72
2023-03-21T20:25:44.962Z,96881.88
2023-03-21T20:28:25.107Z,96884.13
2023-03-21T20:30:58.725Z,96879.31
2023-03-21T20:33:30.926Z,96882.63
2023-03-21T20:36:38.140Z,96883.28
2023-03-21T20:38:56.177Z,96889.50
2023-03-21T20:41:27.749Z,96879.97
2023-03-21T20:44:36.489Z,96875.84
2023-03-21T20:46:51.324Z,96886.94
2023-03-21T20:49:23.132Z,96883.84
2023-03-21T20:54:46.384Z,96891.25
2023-03-21T20:57:19.452Z,96891.69
2023-03-21T20:59:51.627Z,96885.97
2023-03-21T21:02:24.563Z,96888.47
2023-03-21T21:05:24.314Z,96888.34
2023-03-21T21:07:47.857Z,96890.22
2023-03-21T21:10:19.563Z,96891.00
2023-03-21T21:12:51.214Z,96882.91
2023-03-21T21:15:22.980Z,96882.78
2023-03-21T21:18:05.391Z,96879.25
2023-03-21T21:20:38.242Z,96878.88
2023-03-21T21:23:10.070Z,96878.72
2023-03-21T21:25:41.640Z,96871.66
2023-03-21T21:28:13.207Z,96874.50
2023-03-21T21:30:44.791Z,96878.72
2023-03-21T21:33:16.385Z,96888.97
2023-03-21T21:35:49.101Z,96891.31
2023-03-21T21:38:20.710Z,96899.13
2023-03-21T21:40:53.409Z,96896.16
2023-03-21T21:43:25.032Z,96887.59
2023-03-21T21:45:56.926Z,96894.34
2023-03-21T21:48:28.622Z,96895.94
2023-03-21T21:51:03.631Z,96883.91
2023-03-21T21:53:38.312Z,96884.28
2023-03-21T21:56:10.361Z,96886.69
2023-03-21T21:58:42.051Z,96888.97
2023-03-21T22:01:13.802Z,96886.75
2023-03-21T22:03:45.513Z,96888.94
2023-03-21T22:06:17.981Z,96896.31
2023-03-21T22:08:50.428Z,96892.06
2023-03-21T22:11:22.286Z,96891.66
2023-03-21T22:13:53.916Z,96889.94
2023-03-21T22:16:25.766Z,96880.81
2023-03-21T22:18:57.746Z,96882.63
2023-03-21T22:21:29.667Z,96882.47
2023-03-21T22:24:01.387Z,96878.22
2023-03-21T22:26:33.431Z,96877.66
2023-03-21T22:29:05.372Z,96873.22
2023-03-21T22:31:37.103Z,96869.16
2023-03-21T22:34:08.819Z,96879.03
2023-03-21T22:36:40.454Z,96882.59
2023-03-21T22:39:12.560Z,96885.22
2023-03-21T22:41:45.006Z,96883.06
2023-03-21T22:44:16.673Z,96876.47
2023-03-21T22:46:48.386Z,96865.50
2023-03-21T22:49:22.891Z,96865.16
2023-03-21T22:51:54.849Z,96857.94
2023-03-21T22:54:26.872Z,96866.06
2023-03-21T22:56:59.444Z,96868.06
2023-03-21T22:59:31.983Z,96874.63
2023-03-21T23:02:03.923Z,96872.25
2023-03-21T23:04:37.805Z,96869.13
2023-03-21T23:07:10.832Z,96873.56
2023-03-21T23:09:42.753Z,96874.75
2023-03-21T23:12:14.548Z,96872.50
2023-03-21T23:14:46.289Z,96872.19
2023-03-21T23:17:17.854Z,96873.97
2023-03-21T23:19:49.398Z,96872.78
2023-03-21T23:22:21.046Z,96873.66
2023-03-21T23:24:52.690Z,96878.47
2023-03-21T23:27:24.534Z,96874.44
2023-03-21T23:29:56.303Z,96879.38
2023-03-21T23:32:27.941Z,96874.16
2023-03-21T23:34:59.624Z,96872.31
2023-03-21T23:37:31.217Z,96881.44
2023-03-21T23:40:04.226Z,96873.16
2023-03-21T23:42:37.018Z,96874.97
2023-03-21T23:45:08.920Z,96869.38
2023-03-21T23:47:40.551Z,96875.91
2023-03-21T23:50:12.234Z,96875.16
2023-03-21T23:52:43.905Z,96875.63
2023-03-21T23:55:15.525Z,96872.63
2023-03-21T23:57:47.503Z,96868.56
